createdAt,value
2023-03-28T00:01:10.730Z,99302.63
2023-03-28T00:03:40.670Z,99314.38
2023-03-28T00:06:12.125Z,99293.03
2023-03-28T00:08:41.315Z,99304.53
2023-03-28T00:11:19.911Z,99309.38
2023-03-28T00:13:49.398Z,99316.72
2023-03-28T00:16:18.925Z,99316.72
2023-03-28T00:18:47.519Z,99317.81
2023-03-28T00:21:24.891Z,99318.88
2023-03-28T00:23:56.247Z,99324.31
2023-03-28T00:26:27.006Z,99326.44
2023-03-28T00:28:56.095Z,99329.16
2023-03-28T00:31:25.336Z,99330.22
2023-03-28T00:33:54.051Z,99344.69
2023-03-28T00:36:26.815Z,99333.44
2023-03-28T00:38:55.266Z,99338.88
2023-03-28T00:41:26.967Z,99334.50
2023-03-28T00:43:57.061Z,99337.22
2023-03-28T00:46:31.971Z,99334.75
2023-03-28T00:49:04.827Z,99327.59
2023-03-28T00:51:37.172Z,99341.84
2023-03-28T00:54:09.404Z,99323.00
2023-03-28T00:56:42.687Z,99322.16
2023-03-28T00:59:15.924Z,99343.38
2023-03-28T01:01:45.502Z,99341.47
2023-03-28T01:04:20.606Z,99342.53
2023-03-28T01:06:54.806Z,99340.66
2023-03-28T01:09:24.693Z,99338.16
2023-03-28T01:11:58.208Z,99339.22
2023-03-28T01:14:30.486Z,99348.69
2023-03-28T01:16:58.997Z,99351.19
2023-03-28T01:19:45.570Z,99344.91
2023-03-28T01:23:00.614Z,99360.66
2023-03-28T01:26:17.440Z,99348.78
2023-03-28T01:29:40.236Z,99355.78
2023-03-28T01:33:05.112Z,99368.81
2023-03-28T01:36:40.033Z,99361.09
2023-03-28T01:39:16.833Z,99356.69
2023-03-28T01:41:55.389Z,99366.78
2023-03-28T01:44:34.126Z,99361.34
2023-03-28T01:47:10.228Z,99357.31
2023-03-28T01:49:47.280Z,99363.81
2023-03-28T01:52:23.599Z,99364.66
2023-03-28T01:55:00.610Z,99376.59
2023-03-28T01:57:37.115Z,99383.72
2023-03-28T02:00:12.992Z,99384.75
2023-03-28T02:02:49.385Z,99374.13
2023-03-28T02:05:20.545Z,99378.47
2023-03-28T02:07:52.185Z,99379.31
2023-03-28T02:10:26.049Z,99378.72
2023-03-28T02:13:00.397Z,99385.25
2023-03-28T02:15:31.028Z,99386.06
2023-03-28T02:18:03.180Z,99391.50
2023-03-28T02:20:36.049Z,99389.88
2023-03-28T02:23:10.539Z,99396.34
2023-03-28T02:25:39.176Z,99398.25
2023-03-28T02:28:11.037Z,99400.16
2023-03-28T02:30:40.149Z,99403.69
2023-03-28T02:33:30.298Z,99396.59
2023-03-28T02:36:08.608Z,99409.63
2023-03-28T02:38:47.196Z,99426.81
2023-03-28T02:41:30.123Z,99413.63
2023-03-28T02:44:37.036Z,99405.69
2023-03-28T02:47:17.900Z,99417.41
2023-03-28T02:49:56.712Z,99408.63
2023-03-28T02:52:37.012Z,99402.16
2023-03-28T02:55:17.641Z,99402.16
2023-03-28T02:57:51.542Z,99403.19
2023-03-28T03:00:21.725Z,99398.00
2023-03-28T03:02:52.525Z,99399.63
2023-03-28T03:05:22.108Z,99392.28
2023-03-28T03:07:51.638Z,99409.47
2023-03-28T03:10:22.114Z,99399.63
2023-03-28T03:12:50.563Z,99401.56
2023-03-28T03:15:19.176Z,99408.63
2023-03-28T03:17:48.075Z,99414.31
2023-03-28T03:20:16.570Z,99409.72
2023-03-28T03:22:44.977Z,99407.00
2023-03-28T03:25:14.597Z,99421.41
2023-03-28T03:27:44.560Z,99420.38
2023-03-28T03:30:13.976Z,99432.31
2023-03-28T03:32:44.228Z,99426.28
2023-03-28T03:35:13.256Z,99436.13
2023-03-28T03:37:41.683Z,99428.78
2023-03-28T03:40:11.369Z,99443.22
2023-03-28T03:42:39.931Z,99434.84
2023-03-28T03:45:11.669Z,99430.44
2023-03-28T03:47:40.111Z,99441.09
2023-03-28T03:50:09.975Z,99451.16
2023-03-28T03:52:38.801Z,99433.75
2023-03-28T03:55:08.444Z,99436.25
2023-03-28T03:57:36.880Z,99435.44
2023-03-28T04:00:11.714Z,99437.91
2023-03-28T04:02:41.906Z,99431.63
2023-03-28T04:05:11.077Z,99437.69
2023-03-28T04:07:41.250Z,99442.06
2023-03-28T04:10:11.111Z,99434.13
2023-03-28T04:12:39.629Z,99434.75
2023-03-28T04:15:10.107Z,99432.84
2023-03-28T04:17:41.320Z,99433.44
2023-03-28T04:20:13.759Z,99439.75
2023-03-28T04:22:46.262Z,99425.88
2023-03-28T04:25:17.934Z,99434.03
2023-03-28T04:27:48.900Z,99452.88
2023-03-28T04:30:17.979Z,99451.00
2023-03-28T04:32:50.584Z,99448.25
2023-03-28T04:35:19.203Z,99451.81
2023-03-28T04:37:47.702Z,99454.56
2023-03-28T04:40:17.919Z,99456.69
2023-03-28T04:42:46.851Z,99466.97
2023-03-28T04:45:17.953Z,99465.53
2023-03-28T04:47:48.305Z,99465.53
2023-03-28T04:50:17.103Z,99476.66
2023-03-28T04:52:45.673Z,99476.03
2023-03-28T04:55:16.237Z,99460.16
2023-03-28T04:57:44.727Z,99472.13
2023-03-28T05:00:16.917Z,99482.19
2023-03-28T05:02:47.886Z,99472.97
2023-03-28T05:05:16.927Z,99484.66
2023-03-28T05:07:45.344Z,99477.34
2023-03-28T05:10:14.276Z,99483.16
2023-03-28T05:12:42.926Z,99502.59
2023-03-28T05:15:21.171Z,99491.25
2023-03-28T05:17:53.079Z,99503.13
2023-03-28T05:20:21.671Z,99501.81
2023-03-28T05:22:50.114Z,99510.16
2023-03-28T05:25:18.821Z,99505.09
2023-03-28T05:27:47.487Z,99507.13
2023-03-28T05:30:16.561Z,99508.91
2023-03-28T05:32:45.665Z,99509.66
2023-03-28T05:35:17.297Z,99501.38
2023-03-28T05:37:47.009Z,99512.56
2023-03-28T05:40:16.797Z,99500.53
2023-03-28T05:42:45.898Z,99500.63
2023-03-28T05:45:14.509Z,99504.69
2023-03-28T05:47:42.985Z,99486.69
2023-03-28T05:50:12.485Z,99488.84
2023-03-28T05:52:42.258Z,99496.94
2023-03-28T05:55:11.125Z,99501.44
2023-03-28T05:57:39.540Z,99493.75
2023-03-28T06:00:12.098Z,99495.91
2023-03-28T06:02:43.251Z,99506.00
2023-03-28T06:05:12.861Z,99509.44
2023-03-28T06:07:43.346Z,99504.69
2023-03-28T06:10:14.930Z,99501.38
2023-03-28T06:12:43.476Z,99504.91
2023-03-28T06:15:13.729Z,99496.97
2023-03-28T06:17:42.419Z,99511.41
2023-03-28T06:20:12.278Z,99501.66
2023-03-28T06:22:42.235Z,99502.78
2023-03-28T06:25:11.673Z,99503.81
2023-03-28T06:27:40.159Z,99488.06
2023-03-28T06:30:10.463Z,99488.91
2023-03-28T06:32:38.865Z,99506.97
2023-03-28T06:35:09.450Z,99503.06
2023-03-28T06:37:37.897Z,99500.34
2023-03-28T06:40:09.890Z,99517.31
2023-03-28T06:42:38.322Z,99508.66
2023-03-28T06:45:08.517Z,99497.22
2023-03-28T06:47:37.000Z,99484.97
2023-03-28T06:50:06.615Z,99513.81
2023-03-28T06:52:35.192Z,99510.69
2023-03-28T06:55:03.804Z,99502.81
2023-03-28T06:57:33.637Z,99513.03
2023-03-28T07:00:02.201Z,99515.13
2023-03-28T07:02:31.057Z,99520.44
2023-03-28T07:04:59.596Z,99533.50
2023-03-28T07:07:28.175Z,99530.59
2023-03-28T07:09:56.638Z,99537.75
2023-03-28T07:12:25.200Z,99539.25
2023-03-28T07:14:55.050Z,99536.66
2023-03-28T07:17:23.483Z,99543.97
2023-03-28T07:19:53.675Z,99529.59
2023-03-28T07:22:22.252Z,99539.25
2023-03-28T07:24:50.799Z,99561.31
2023-03-28T07:27:19.225Z,99542.81
2023-03-28T07:29:47.758Z,99544.97
2023-03-28T07:32:17.820Z,99547.31
2023-03-28T07:34:46.586Z,99551.94
2023-03-28T07:37:15.168Z,99561.97
2023-03-28T07:39:43.978Z,99555.00
2023-03-28T07:42:13.471Z,99548.03
2023-03-28T07:44:42.561Z,99549.03
2023-03-28T07:47:12.297Z,99560.72
2023-03-28T07:49:42.135Z,99569.28
2023-03-28T07:52:10.590Z,99568.53
2023-03-28T07:54:39.293Z,99581.22
2023-03-28T07:57:08.236Z,99567.66
2023-03-28T07:59:37.025Z,99567.66
2023-03-28T08:02:05.613Z,99580.53
2023-03-28T08:04:34.504Z,99591.78
2023-03-28T08:07:04.326Z,99596.84
2023-03-28T08:09:32.805Z,99601.81
2023-03-28T08:12:01.964Z,99596.44
2023-03-28T08:14:30.704Z,99603.19
2023-03-28T08:16:59.163Z,99603.41
2023-03-28T08:19:27.743Z,99603.34
2023-03-28T08:21:58.887Z,99601.25
2023-03-28T08:24:35.326Z,99597.75
2023-03-28T08:27:05.267Z,99607.72
2023-03-28T08:29:33.953Z,99605.38
2023-03-28T08:32:03.723Z,99620.31
2023-03-28T08:34:32.232Z,99615.41
2023-03-28T08:37:00.833Z,99621.13
2023-03-28T08:39:30.946Z,99625.69
2023-03-28T08:42:24.734Z,99628.53
2023-03-28T08:45:16.910Z,99628.63
2023-03-28T08:48:01.545Z,99621.34
2023-03-28T08:50:34.880Z,99614.50
2023-03-28T08:53:05.029Z,99628.06
2023-03-28T08:55:40.234Z,99623.03
2023-03-28T08:58:19.856Z,99630.91
2023-03-28T09:00:50.472Z,99627.50
2023-03-28T09:03:22.699Z,99618.16
2023-03-28T09:05:57.084Z,99622.00
2023-03-28T09:09:13.512Z,99627.91
2023-03-28T09:12:10.599Z,99636.97
2023-03-28T09:15:16.348Z,99634.31
2023-03-28T09:18:02.321Z,99651.16
2023-03-28T09:20:43.241Z,99652.50
2023-03-28T09:23:42.184Z,99656.94
2023-03-28T09:26:17.160Z,99678.28
2023-03-28T09:28:53.409Z,99671.91
2023-03-28T09:31:29.032Z,99655.09
2023-03-28T09:34:00.444Z,99652.22
2023-03-28T09:36:45.452Z,99671.84
2023-03-28T09:39:29.889Z,99673.75
2023-03-28T09:42:05.591Z,99694.94
2023-03-28T09:44:53.512Z,99730.84
2023-03-28T09:47:23.056Z,99726.88
2023-03-28T09:50:02.181Z,99715.63
2023-03-28T09:52:34.401Z,99720.63
2023-03-28T09:55:03.258Z,99722.63
2023-03-28T09:58:02.072Z,99731.84
2023-03-28T10:00:38.253Z,99728.06
2023-03-28T10:03:08.366Z,99707.44
2023-03-28T10:05:40.875Z,99722.91
2023-03-28T10:08:27.105Z,99729.59
2023-03-28T10:11:03.384Z,99755.34
2023-03-28T10:13:40.377Z,99743.88
2023-03-28T10:16:14.255Z,99751.34
2023-03-28T10:18:44.187Z,99773.56
2023-03-28T10:21:18.696Z,99755.47
2023-03-28T10:23:54.634Z,99761.78
2023-03-28T10:26:27.813Z,99761.75
2023-03-28T10:29:04.301Z,99747.53
2023-03-28T10:31:35.266Z,99748.06
2023-03-28T10:34:04.076Z,99739.34
2023-03-28T10:36:37.533Z,99741.66
2023-03-28T10:39:23.346Z,99736.78
2023-03-28T10:41:56.159Z,99721.69
2023-03-28T10:44:30.538Z,99709.84
2023-03-28T10:47:04.475Z,99731.63
2023-03-28T10:49:47.272Z,99716.78
2023-03-28T10:52:27.091Z,99694.66
2023-03-28T10:55:13.603Z,99699.16
2023-03-28T10:57:53.972Z,99708.59
2023-03-28T11:00:27.603Z,99698.41
2023-03-28T11:03:27.778Z,99704.09
2023-03-28T11:06:09.414Z,99706.41
2023-03-28T11:08:58.341Z,99718.56
2023-03-28T11:11:50.643Z,99715.97
2023-03-28T11:14:36.806Z,99710.09
2023-03-28T11:17:14.867Z,99716.47
2023-03-28T11:20:17.598Z,99721.59
2023-03-28T11:23:09.741Z,99716.97
2023-03-28T11:25:47.468Z,99728.28
2023-03-28T11:28:29.210Z,99732.03
2023-03-28T11:31:01.291Z,99740.97
2023-03-28T11:33:37.501Z,99712.44
2023-03-28T11:36:16.553Z,99730.25
2023-03-28T11:38:51.898Z,99740.38
2023-03-28T11:41:23.431Z,99761.38
2023-03-28T11:43:59.693Z,99754.34
2023-03-28T11:46:33.210Z,99757.97
2023-03-28T11:49:18.248Z,99764.78
2023-03-28T11:51:56.970Z,99784.03
2023-03-28T11:54:34.803Z,99740.97
2023-03-28T11:57:13.255Z,99752.19
2023-03-28T11:59:49.348Z,99732.97
2023-03-28T12:02:39.024Z,99737.97
2023-03-28T12:05:19.985Z,99725.28
2023-03-28T12:07:56.670Z,99723.69
2023-03-28T12:10:36.013Z,99724.22
2023-03-28T12:13:12.364Z,99718.94
2023-03-28T12:15:49.920Z,99725.75
2023-03-28T12:18:28.240Z,99705.25
2023-03-28T12:21:05.257Z,99717.41
2023-03-28T12:23:40.888Z,99702.53
2023-03-28T12:26:22.919Z,99715.63
2023-03-28T12:28:55.924Z,99720.25
2023-03-28T12:31:28.891Z,99718.72
2023-03-28T12:34:06.733Z,99729.81
2023-03-28T12:36:44.147Z,99711.63
2023-03-28T12:39:34.479Z,99716.59
2023-03-28T12:42:06.304Z,99709.34
2023-03-28T12:44:43.887Z,99729.78
2023-03-28T12:47:19.791Z,99720.06
2023-03-28T12:49:53.113Z,99743.88
2023-03-28T12:52:25.684Z,99738.63
2023-03-28T12:55:01.884Z,99742.47
2023-03-28T12:57:48.271Z,99731.88
2023-03-28T13:00:27.945Z,99714.06
2023-03-28T13:03:16.422Z,99730.63
2023-03-28T13:05:54.065Z,99743.66
2023-03-28T13:08:37.786Z,99727.59
2023-03-28T13:11:19.527Z,99739.53
2023-03-28T13:13:59.501Z,99732.56
2023-03-28T13:16:46.570Z,99714.88
2023-03-28T13:19:18.735Z,99737.09
2023-03-28T13:21:51.908Z,99749.44
2023-03-28T13:24:36.170Z,99730.97
2023-03-28T13:27:13.811Z,99729.66
2023-03-28T13:29:51.626Z,99726.06
2023-03-28T13:32:24.379Z,99733.16
2023-03-28T13:34:57.858Z,99740.19
2023-03-28T13:37:38.134Z,99751.31
2023-03-28T13:40:22.256Z,99730.44
2023-03-28T13:43:00.816Z,99740.13
2023-03-28T13:45:29.293Z,99735.44
2023-03-28T13:48:09.916Z,99738.56
2023-03-28T13:50:41.213Z,99743.59
2023-03-28T13:53:10.027Z,99743.09
2023-03-28T13:55:38.895Z,99737.56
2023-03-28T13:58:12.378Z,99734.50
2023-03-28T14:00:41.249Z,99737.78
2023-03-28T14:03:16.653Z,99744.66
2023-03-28T14:05:47.682Z,99744.31
2023-03-28T14:08:25.433Z,99743.41
2023-03-28T14:10:56.929Z,99754.91
2023-03-28T14:13:30.555Z,99749.09
2023-03-28T14:15:59.267Z,99747.25
2023-03-28T14:18:36.024Z,99718.22
2023-03-28T14:21:06.749Z,99734.31
2023-03-28T14:23:38.570Z,99735.84
2023-03-28T14:26:14.807Z,99735.63
2023-03-28T14:28:47.244Z,99743.56
2023-03-28T14:31:29.123Z,99733.44
2023-03-28T14:33:58.749Z,99746.53
2023-03-28T14:36:31.249Z,99748.75
2023-03-28T14:39:13.352Z,99759.34
2023-03-28T14:41:44.886Z,99753.84
2023-03-28T14:44:15.720Z,99759.94
2023-03-28T14:46:44.547Z,99754.41
2023-03-28T14:49:23.534Z,99766.75
2023-03-28T14:51:57.514Z,99771.69
2023-03-28T14:54:31.367Z,99745.44
2023-03-28T14:57:01.076Z,99774.34
2023-03-28T14:59:38.142Z,99791.94
2023-03-28T15:02:11.278Z,99780.06
2023-03-28T15:04:40.689Z,99775.78
2023-03-28T15:07:24.361Z,99775.19
2023-03-28T15:10:10.140Z,99784.22
2023-03-28T15:12:47.758Z,99787.44
2023-03-28T15:15:24.145Z,99779.13
2023-03-28T15:17:54.689Z,99785.72
2023-03-28T15:20:28.052Z,99792.03
2023-03-28T15:22:58.873Z,99798.88
2023-03-28T15:25:28.793Z,99804.09
2023-03-28T15:28:01.828Z,99818.94
2023-03-28T15:30:36.424Z,99797.97
2023-03-28T15:33:07.342Z,99796.53
2023-03-28T15:35:40.569Z,99806.38
2023-03-28T15:38:16.488Z,99807.66
2023-03-28T15:40:46.718Z,99821.63
2023-03-28T15:43:41.406Z,99822.09
2023-03-28T15:46:16.181Z,99823.97
2023-03-28T15:48:45.380Z,99811.56
2023-03-28T15:51:17.856Z,99818.09
2023-03-28T15:53:48.899Z,99826.00
2023-03-28T15:56:24.713Z,99829.81
2023-03-28T15:58:54.092Z,99828.38
2023-03-28T16:01:28.493Z,99837.66
2023-03-28T16:04:28.936Z,99829.59
2023-03-28T16:07:10.513Z,99839.19
2023-03-28T16:09:43.061Z,99841.38
2023-03-28T16:12:15.274Z,99842.72
2023-03-28T16:14:48.051Z,99833.31
2023-03-28T16:17:17.929Z,99846.22
2023-03-28T16:19:48.834Z,99844.81
2023-03-28T16:22:17.370Z,99845.09
2023-03-28T16:24:46.352Z,99861.59
2023-03-28T16:27:14.865Z,99854.44
2023-03-28T16:29:43.769Z,99864.81
2023-03-28T16:32:13.628Z,99870.59
2023-03-28T16:34:45.171Z,99868.59
2023-03-28T16:37:13.805Z,99874.88
2023-03-28T16:39:42.245Z,99877.31
2023-03-28T16:42:11.197Z,99882.97
2023-03-28T16:44:39.853Z,99891.38
2023-03-28T16:47:08.420Z,99881.41
2023-03-28T16:49:37.141Z,99885.50
2023-03-28T16:52:07.555Z,99887.91
2023-03-28T16:54:36.552Z,99890.91
2023-03-28T16:57:05.477Z,99894.50
2023-03-28T16:59:34.830Z,99901.91
2023-03-28T17:02:03.396Z,99895.34
2023-03-28T17:04:33.901Z,99905.47
2023-03-28T17:07:03.034Z,99911.56
2023-03-28T17:09:34.724Z,99920.06
2023-03-28T17:12:03.582Z,99908.22
2023-03-28T17:14:32.743Z,99921.63
2023-03-28T17:17:03.335Z,99921.63
2023-03-28T17:19:33.206Z,99927.38
2023-03-28T17:22:02.969Z,99931.22
2023-03-28T17:24:33.173Z,99932.28
2023-03-28T17:27:03.021Z,99938.28
2023-03-28T17:29:34.124Z,99939.38
2023-03-28T17:32:04.249Z,99942.59
2023-03-28T17:34:33.446Z,99948.84
2023-03-28T17:37:04.553Z,99943.53
2023-03-28T17:39:36.978Z,99949.75
2023-03-28T17:42:07.408Z,99956.00
2023-03-28T17:44:36.745Z,99952.31
2023-03-28T17:47:06.812Z,99953.31
2023-03-28T17:49:37.641Z,99958.44
2023-03-28T17:52:11.836Z,99962.53
2023-03-28T17:54:42.930Z,99968.00
2023-03-28T17:57:13.046Z,99978.75
2023-03-28T17:59:43.196Z,99976.84
2023-03-28T18:02:13.992Z,99984.25
2023-03-28T18:04:44.669Z,99985.91
2023-03-28T18:07:16.245Z,99993.91
2023-03-28T18:09:49.578Z,99994.97
2023-03-28T18:12:20.440Z,99994.97
2023-03-28T18:14:50.628Z,100003.47
2023-03-28T18:17:23.526Z,99993.78
2023-03-28T18:19:54.192Z,100001.41
2023-03-28T18:22:24.296Z,100004.91
2023-03-28T18:25:03.573Z,100008.38
2023-03-28T18:27:34.577Z,100010.75
2023-03-28T18:30:07.792Z,100013.75
2023-03-28T18:32:40.275Z,100009.13
2023-03-28T18:35:12.275Z,100016.25
2023-03-28T18:37:43.390Z,100022.59
2023-03-28T18:40:17.633Z,100016.03
2023-03-28T18:42:47.402Z,100014.94
2023-03-28T18:45:18.215Z,100008.38
2023-03-28T18:47:48.074Z,100009.44
2023-03-28T18:50:19.989Z,100007.53
2023-03-28T18:52:50.007Z,100024.59
2023-03-28T18:55:22.456Z,100012.78
2023-03-28T18:57:53.121Z,100005.38
2023-03-28T19:00:24.212Z,100006.22
2023-03-28T19:03:02.928Z,100010.41
2023-03-28T19:05:37.657Z,100010.41
2023-03-28T19:08:11.594Z,100008.50
2023-03-28T19:10:48.474Z,100000.72
2023-03-28T19:13:20.091Z,100003.47
2023-03-28T19:15:59.456Z,100005.88
2023-03-28T19:18:31.549Z,100007.81
2023-03-28T19:21:03.054Z,100002.78
2023-03-28T19:23:33.493Z,100003.28
2023-03-28T19:26:09.134Z,100000.41
2023-03-28T19:28:39.741Z,100006.63
2023-03-28T19:31:12.844Z,99996.41
2023-03-28T19:33:45.364Z,99997.97
2023-03-28T19:36:15.764Z,100001.44
2023-03-28T19:38:46.253Z,100000.50
2023-03-28T19:41:22.676Z,99989.91
2023-03-28T19:43:53.191Z,100007.94
2023-03-28T19:46:33.295Z,99998.50
2023-03-28T19:49:08.590Z,100001.97
2023-03-28T19:51:39.176Z,100001.63
2023-03-28T19:54:08.980Z,100000.44
2023-03-28T19:56:41.376Z,99996.50
2023-03-28T19:59:12.240Z,99995.91
2023-03-28T20:01:42.554Z,99990.09
2023-03-28T20:04:16.274Z,99994.41
2023-03-28T20:06:46.398Z,99995.72
2023-03-28T20:09:15.996Z,99998.66
2023-03-28T20:11:47.724Z,99993.69
2023-03-28T20:14:20.519Z,99998.56
2023-03-28T20:16:50.052Z,99998.19
2023-03-28T20:19:20.809Z,99995.94
2023-03-28T20:21:50.855Z,99990.09
2023-03-28T20:24:20.911Z,99990.56
2023-03-28T20:26:53.202Z,99995.72
2023-03-28T20:29:22.608Z,99992.59
2023-03-28T20:31:53.385Z,99993.56
2023-03-28T20:34:25.307Z,100012.97
2023-03-28T20:36:56.739Z,100002.50
2023-03-28T20:39:27.830Z,100009.28
2023-03-28T20:42:05.856Z,100011.41
2023-03-28T20:44:38.503Z,100011.28
2023-03-28T20:47:09.204Z,100014.28
2023-03-28T20:49:45.936Z,100014.75
2023-03-28T20:52:15.512Z,100010.31
2023-03-28T20:54:43.930Z,100014.38
2023-03-28T20:57:13.788Z,100018.44
2023-03-28T20:59:42.702Z,100019.50
2023-03-28T21:02:12.464Z,100018.28
2023-03-28T21:04:41.923Z,100022.94
2023-03-28T21:07:11.266Z,100025.03
2023-03-28T21:09:41.794Z,100033.72
2023-03-28T21:12:10.343Z,100039.69
2023-03-28T21:14:40.241Z,100036.56
2023-03-28T21:17:10.048Z,100036.22
2023-03-28T21:19:38.503Z,100041.28
2023-03-28T21:22:07.077Z,100042.00
2023-03-28T21:24:35.540Z,100044.38
2023-03-28T21:27:03.975Z,100040.22
2023-03-28T21:29:32.692Z,100041.50
2023-03-28T21:32:02.500Z,100047.44
2023-03-28T21:34:33.515Z,100046.00
2023-03-28T21:37:02.064Z,100042.06
2023-03-28T21:39:30.493Z,100038.97
2023-03-28T21:41:59.242Z,100042.16
2023-03-28T21:44:27.856Z,100047.22
2023-03-28T21:46:56.862Z,100049.38
2023-03-28T21:49:26.785Z,100047.13
2023-03-28T21:51:55.351Z,100047.31
2023-03-28T21:54:23.808Z,100048.88
2023-03-28T21:56:52.246Z,100048.25
2023-03-28T21:59:21.079Z,100049.56
2023-03-28T22:01:49.571Z,100047.88
2023-03-28T22:04:18.026Z,100053.81
2023-03-28T22:06:47.857Z,100056.75
2023-03-28T22:09:16.252Z,100050.69
2023-03-28T22:11:45.927Z,100061.28
2023-03-28T22:14:14.343Z,100060.66
2023-03-28T22:16:42.743Z,100058.97
2023-03-28T22:19:13.678Z,100057.31
2023-03-28T22:21:42.150Z,100056.69
2023-03-28T22:24:13.382Z,100055.03
2023-03-28T22:26:42.274Z,100051.72
2023-03-28T22:29:10.749Z,100059.31
2023-03-28T22:31:39.217Z,100055.94
2023-03-28T22:34:07.793Z,100050.94
2023-03-28T22:36:36.493Z,100044.03
2023-03-28T22:39:05.312Z,100043.44
2023-03-28T22:41:35.144Z,100033.78
2023-03-28T22:44:04.102Z,100027.94
2023-03-28T22:46:32.758Z,100031.94
2023-03-28T22:49:04.687Z,100041.00
2023-03-28T22:51:33.336Z,100025.06
2023-03-28T22:54:03.223Z,100017.31
2023-03-28T22:56:31.674Z,100023.00
2023-03-28T22:59:02.111Z,100025.34
2023-03-28T23:01:30.831Z,100029.13
2023-03-28T23:03:59.378Z,100027.72
2023-03-28T23:06:28.729Z,100027.31
2023-03-28T23:08:58.655Z,100024.00
2023-03-28T23:11:27.595Z,100032.41
2023-03-28T23:13:56.054Z,100023.59
2023-03-28T23:16:26.148Z,100022.19
2023-03-28T23:18:54.739Z,100029.53
2023-03-28T23:21:24.492Z,100026.19
2023-03-28T23:23:53.360Z,100010.84
2023-03-28T23:26:22.399Z,100026.63
2023-03-28T23:28:50.917Z,100020.56
2023-03-28T23:31:22.317Z,100017.22
2023-03-28T23:33:52.193Z,100018.28
2023-03-28T23:36:21.313Z,100022.09
2023-03-28T23:38:50.130Z,100016.00
2023-03-28T23:41:22.412Z,100016.47
2023-03-28T23:43:50.877Z,100005.75
2023-03-28T23:46:19.308Z,100008.72
2023-03-28T23:48:47.756Z,100006.22
2023-03-28T23:51:17.573Z,100007.25
2023-03-28T23:53:46.259Z,100002.03
2023-03-28T23:56:14.792Z,100003.31
2023-03-28T23:58:43.255Z,100011.75
